Time;durP1;ratioP1;P1;durP2;ratioP2;P2;SDS_P1;SDS_P2;PMS_P1;PMS_P2;Temp;Humidity;BMP_temperature;BMP_pressure;BME280_temperature;BME280_humidity;BME280_pressure;Samples;Min_cycle;Max_cycle;Signal;HPM_P1;HPM_P2
2021/10/09 00:01:25;;;;;;;31.57;16.37;;;12.20;99.90;;;;;;5034500;28;20464;-70
2021/10/09 00:03:51;;;;;;;29.17;17.17;;;12.20;99.90;;;;;;5046325;28;20221;-70
2021/10/09 00:06:18;;;;;;;28.97;15.90;;;12.20;99.90;;;;;;5052886;28;20481;-70
2021/10/09 00:08:44;;;;;;;28.50;16.90;;;12.10;99.90;;;;;;5034900;28;20461;-70
2021/10/09 00:11:19;;;;;;;26.33;15.87;;;12.10;99.90;;;;;;5036021;28;20458;-70
2021/10/09 00:13:45;;;;;;;25.40;16.10;;;12.10;99.90;;;;;;5034607;28;20235;-70
2021/10/09 00:16:11;;;;;;;26.17;16.33;;;12.00;99.90;;;;;;5036404;28;20465;-71
2021/10/09 00:18:36;;;;;;;30.20;17.70;;;12.00;99.90;;;;;;5061512;28;20442;-70
2021/10/09 00:21:02;;;;;;;24.73;15.10;;;11.90;99.90;;;;;;5051870;28;20698;-70
2021/10/09 00:23:28;;;;;;;24.40;14.73;;;12.00;99.90;;;;;;5030112;28;20599;-71
2021/10/09 00:25:55;;;;;;;26.53;15.67;;;11.90;99.90;;;;;;5043131;28;20347;-70
2021/10/09 00:28:21;;;;;;;27.17;15.20;;;12.00;99.90;;;;;;5027193;28;20226;-70
2021/10/09 00:30:47;;;;;;;25.63;15.83;;;11.90;99.90;;;;;;5045104;28;20842;-70
2021/10/09 00:33:12;;;;;;;27.77;15.07;;;11.90;99.90;;;;;;5031987;28;20461;-71
2021/10/09 00:35:38;;;;;;;26.47;15.50;;;11.80;99.90;;;;;;5047353;28;20230;-70
2021/10/09 00:38:04;;;;;;;22.83;14.83;;;11.80;99.90;;;;;;5029913;28;20215;-71
2021/10/09 00:40:30;;;;;;;26.97;15.37;;;11.70;99.90;;;;;;5045570;28;20211;-69
2021/10/09 00:42:56;;;;;;;27.20;15.67;;;11.70;99.90;;;;;;5045057;28;20215;-69
2021/10/09 00:45:21;;;;;;;28.37;17.53;;;11.70;99.90;;;;;;5030749;28;20223;-70
2021/10/09 00:47:49;;;;;;;28.67;15.93;;;11.70;99.90;;;;;;5033544;28;20311;-70
2021/10/09 00:50:15;;;;;;;26.30;15.13;;;11.70;99.90;;;;;;5043653;28;20219;-70
2021/10/09 00:52:43;;;;;;;27.53;15.63;;;11.70;99.90;;;;;;5021806;28;20469;-70
2021/10/09 00:55:10;;;;;;;24.13;15.37;;;11.60;99.90;;;;;;5043208;28;20273;-70
2021/10/09 00:57:38;;;;;;;25.03;14.70;;;11.60;99.90;;;;;;5032488;28;20446;-70
2021/10/09 01:00:06;;;;;;;24.63;15.00;;;11.60;99.90;;;;;;5042528;28;20515;-70
2021/10/09 01:02:38;;;;;;;22.87;14.37;;;11.50;99.90;;;;;;5028012;28;20472;-71
2021/10/09 01:05:07;;;;;;;24.20;15.37;;;11.50;99.90;;;;;;5027903;28;20463;-71
2021/10/09 01:07:33;;;;;;;28.27;15.97;;;11.50;99.90;;;;;;5030332;28;20549;-70
2021/10/09 01:10:00;;;;;;;30.60;16.30;;;11.50;99.90;;;;;;5033531;28;20537;-69
2021/10/09 01:12:27;;;;;;;24.07;15.90;;;11.50;99.90;;;;;;5032928;28;20226;-71
2021/10/09 01:14:53;;;;;;;25.97;15.33;;;11.40;99.90;;;;;;5023015;28;20512;-70
2021/10/09 01:17:19;;;;;;;28.07;15.90;;;11.40;99.90;;;;;;5045305;28;20450;-70
2021/10/09 01:19:45;;;;;;;25.70;14.57;;;11.30;99.90;;;;;;5031422;28;20455;-70
2021/10/09 01:22:11;;;;;;;33.47;15.70;;;11.30;99.90;;;;;;5041847;28;20485;-70
2021/10/09 01:24:39;;;;;;;25.83;14.40;;;11.30;99.90;;;;;;5031800;28;20453;-70
2021/10/09 01:27:06;;;;;;;25.70;15.60;;;11.30;99.90;;;;;;5047891;28;20472;-70
2021/10/09 01:29:33;;;;;;;23.50;14.13;;;11.30;99.90;;;;;;5044682;28;20454;-70
2021/10/09 01:31:59;;;;;;;25.67;16.00;;;11.20;99.90;;;;;;5030170;28;20309;-70
2021/10/09 01:34:27;;;;;;;26.17;15.43;;;11.20;99.90;;;;;;5045653;28;20461;-70
2021/10/09 01:37:01;;;;;;;29.03;15.10;;;11.20;99.90;;;;;;5034639;28;20453;-70
2021/10/09 01:39:31;;;;;;;24.00;14.63;;;11.20;99.90;;;;;;5060212;28;20447;-70
2021/10/09 01:41:57;;;;;;;24.20;14.30;;;11.20;99.90;;;;;;5025024;28;20523;-71
2021/10/09 01:44:26;;;;;;;30.30;15.43;;;11.20;99.90;;;;;;5025726;28;20243;-70
2021/10/09 01:46:55;;;;;;;23.37;13.80;;;11.20;99.90;;;;;;5032114;28;20477;-69
2021/10/09 01:49:22;;;;;;;24.17;14.83;;;11.10;99.90;;;;;;5046566;28;20450;-70
2021/10/09 01:51:50;;;;;;;20.37;13.50;;;11.10;99.90;;;;;;5029484;28;20450;-70
2021/10/09 01:54:15;;;;;;;22.10;14.83;;;11.10;99.90;;;;;;5044936;28;20469;-70
2021/10/09 01:56:41;;;;;;;24.03;15.33;;;11.10;99.90;;;;;;5043616;28;20251;-69
2021/10/09 01:59:08;;;;;;;22.80;14.50;;;11.10;99.90;;;;;;5041213;28;20710;-71
2021/10/09 02:01:39;;;;;;;22.80;14.23;;;11.00;99.90;;;;;;5038335;28;20453;-69
2021/10/09 02:04:05;;;;;;;20.13;12.90;;;11.00;99.90;;;;;;5048198;28;20462;-70
2021/10/09 02:06:31;;;;;;;23.73;14.70;;;11.00;99.90;;;;;;5046779;28;20220;-70
2021/10/09 02:08:57;;;;;;;23.73;14.10;;;11.00;99.90;;;;;;5034482;28;20218;-71
2021/10/09 02:11:27;;;;;;;19.90;13.77;;;11.00;99.90;;;;;;5031714;28;20215;-69
2021/10/09 02:16:52;;;;;;;27.67;13.83;;;11.00;99.90;;;;;;5042488;28;20489;-69
2021/10/09 02:25:14;;;;;;;19.50;13.17;;;10.90;99.90;;;;;;5044208;28;20465;-70
2021/10/09 02:27:40;;;;;;;23.80;12.27;;;10.80;99.90;;;;;;5048181;28;20457;-70
2021/10/09 02:30:06;;;;;;;23.13;13.93;;;10.80;99.90;;;;;;5039350;28;20991;-69
2021/10/09 02:32:32;;;;;;;21.80;13.23;;;10.70;99.90;;;;;;5045799;28;20466;-70
2021/10/09 02:34:58;;;;;;;21.17;12.20;;;10.70;99.90;;;;;;5029521;28;20450;-69
2021/10/09 02:37:24;;;;;;;21.73;12.53;;;10.70;99.90;;;;;;5035213;28;20215;-68
2021/10/09 02:39:49;;;;;;;25.03;14.17;;;10.70;99.90;;;;;;5043927;28;20215;-70
2021/10/09 02:42:16;;;;;;;23.37;14.57;;;10.70;99.90;;;;;;5034762;28;20225;-70
2021/10/09 02:44:43;;;;;;;18.20;12.30;;;10.70;99.90;;;;;;5026509;28;20449;-70
2021/10/09 02:47:10;;;;;;;20.20;13.47;;;10.60;99.90;;;;;;5035404;28;20510;-70
2021/10/09 02:49:39;;;;;;;17.40;11.40;;;10.60;99.90;;;;;;5030507;28;20528;-70
2021/10/09 02:52:04;;;;;;;20.97;13.80;;;10.60;99.90;;;;;;5048691;28;20461;-71
2021/10/09 02:54:30;;;;;;;18.37;13.67;;;10.60;99.90;;;;;;5046903;28;20238;-70
2021/10/09 02:56:58;;;;;;;25.33;12.97;;;10.50;99.90;;;;;;5031228;28;20216;-70
2021/10/09 02:59:24;;;;;;;24.30;12.13;;;10.50;99.90;;;;;;5047741;28;20493;-70
2021/10/09 03:01:50;;;;;;;21.40;11.60;;;10.50;99.90;;;;;;5037055;28;20580;-70
2021/10/09 03:04:18;;;;;;;21.50;12.20;;;10.50;99.90;;;;;;5050799;28;20266;-71
2021/10/09 03:06:45;;;;;;;19.63;12.90;;;10.50;99.90;;;;;;5043528;28;20462;-70
2021/10/09 03:09:11;;;;;;;20.77;12.40;;;10.40;99.90;;;;;;5050030;28;20449;-70
2021/10/09 03:11:38;;;;;;;22.90;13.83;;;10.40;99.90;;;;;;5029232;28;20599;-70
2021/10/09 03:14:03;;;;;;;22.10;13.90;;;10.40;99.90;;;;;;5036490;28;20462;-70
2021/10/09 03:16:30;;;;;;;19.93;13.23;;;10.40;99.90;;;;;;5049783;28;20229;-70
2021/10/09 03:18:57;;;;;;;21.70;12.80;;;10.40;99.90;;;;;;5049392;28;20988;-70
2021/10/09 03:21:23;;;;;;;20.20;12.33;;;10.40;99.90;;;;;;5048876;28;20445;-70
2021/10/09 03:23:49;;;;;;;19.70;12.43;;;10.40;99.90;;;;;;5047396;28;20531;-70
2021/10/09 03:26:16;;;;;;;19.03;11.17;;;10.40;99.90;;;;;;5038802;28;20216;-70
2021/10/09 03:28:41;;;;;;;19.30;11.43;;;10.30;99.90;;;;;;5044807;28;20464;-71
2021/10/09 03:31:08;;;;;;;19.20;11.90;;;10.30;99.90;;;;;;5050315;28;20226;-70
2021/10/09 03:33:35;;;;;;;23.17;11.70;;;10.30;99.90;;;;;;5046143;28;20520;-70
2021/10/09 03:36:01;;;;;;;21.70;12.37;;;10.30;99.90;;;;;;5035624;28;20454;-69
2021/10/09 03:38:27;;;;;;;17.57;11.00;;;10.30;99.90;;;;;;5047752;28;20222;-71
2021/10/09 03:41:08;;;;;;;17.30;10.80;;;10.20;99.90;;;;;;5029216;28;20441;-70
2021/10/09 03:43:35;;;;;;;24.40;11.10;;;10.20;99.90;;;;;;5067060;28;20450;-70
2021/10/09 03:46:13;;;;;;;16.63;10.60;;;10.20;99.90;;;;;;5034265;28;20457;-71
2021/10/09 03:54:12;;;;;;;21.03;10.97;;;10.10;99.90;;;;;;5045191;28;20465;-70
2021/10/09 03:56:40;;;;;;;18.40;11.00;;;10.10;99.90;;;;;;5032680;28;20464;-70
2021/10/09 03:59:06;;;;;;;19.50;11.03;;;10.10;99.90;;;;;;5031993;28;20462;-69
2021/10/09 04:01:33;;;;;;;16.60;10.90;;;10.10;99.90;;;;;;5027256;28;20241;-70
2021/10/09 04:03:59;;;;;;;18.00;10.90;;;10.10;99.90;;;;;;5047889;28;20469;-69
2021/10/09 04:06:25;;;;;;;21.30;12.73;;;10.10;99.90;;;;;;5034772;28;20246;-71
2021/10/09 04:08:51;;;;;;;17.23;11.40;;;10.10;99.90;;;;;;5029616;28;20446;-70
2021/10/09 04:11:17;;;;;;;16.23;10.47;;;10.10;99.90;;;;;;5048201;28;20713;-70
2021/10/09 04:13:43;;;;;;;20.30;11.43;;;10.10;99.90;;;;;;5061167;28;20752;-70
2021/10/09 04:16:09;;;;;;;20.87;12.20;;;10.00;99.90;;;;;;5044224;28;20832;-70
2021/10/09 04:18:35;;;;;;;19.30;11.60;;;10.00;99.90;;;;;;5045608;28;20457;-71
2021/10/09 04:21:01;;;;;;;20.93;11.00;;;10.00;99.90;;;;;;5032439;28;20226;-70
2021/10/09 04:23:28;;;;;;;24.57;12.37;;;10.00;99.90;;;;;;5047180;28;21024;-70
2021/10/09 04:25:55;;;;;;;18.20;10.60;;;10.00;99.90;;;;;;5049420;28;20222;-70
2021/10/09 04:28:21;;;;;;;19.90;10.73;;;10.00;99.90;;;;;;5029416;28;20463;-70
2021/10/09 04:30:46;;;;;;;14.57;10.90;;;10.00;99.90;;;;;;5036282;28;20552;-70
2021/10/09 04:33:14;;;;;;;19.00;10.37;;;9.90;99.90;;;;;;5043780;28;20223;-70
2021/10/09 04:35:39;;;;;;;21.20;11.33;;;9.90;99.90;;;;;;5036880;28;20990;-70
2021/10/09 04:38:10;;;;;;;21.13;11.23;;;9.90;99.90;;;;;;5030000;28;20264;-70
2021/10/09 04:40:38;;;;;;;18.27;11.00;;;9.90;99.90;;;;;;5033580;28;20450;-70
2021/10/09 04:43:05;;;;;;;19.10;10.17;;;9.90;99.90;;;;;;5024935;28;20876;-70
2021/10/09 04:45:31;;;;;;;14.30;9.50;;;9.80;99.90;;;;;;5047651;28;20458;-70
2021/10/09 04:48:02;;;;;;;18.93;10.43;;;9.80;99.90;;;;;;5034101;28;20457;-70
2021/10/09 04:50:28;;;;;;;19.37;10.80;;;9.70;99.90;;;;;;5032253;28;20464;-69
2021/10/09 04:52:55;;;;;;;21.00;11.67;;;9.70;99.90;;;;;;5029212;28;20458;-70
2021/10/09 04:55:21;;;;;;;16.90;11.47;;;9.70;99.90;;;;;;5056963;28;20472;-69
2021/10/09 04:57:47;;;;;;;16.20;10.90;;;9.70;99.90;;;;;;5048063;28;21048;-70
2021/10/09 05:00:13;;;;;;;22.17;11.33;;;9.70;99.90;;;;;;5047179;28;20235;-71
2021/10/09 05:02:39;;;;;;;14.83;9.80;;;9.70;99.90;;;;;;5047815;28;20207;-70
2021/10/09 05:05:06;;;;;;;16.60;11.07;;;9.70;99.90;;;;;;5052423;28;20454;-70
2021/10/09 05:07:36;;;;;;;16.93;9.73;;;9.70;99.90;;;;;;5050872;28;20492;-70
2021/10/09 05:10:02;;;;;;;19.30;10.13;;;9.70;99.90;;;;;;5052627;28;20475;-70
2021/10/09 05:12:31;;;;;;;15.80;10.27;;;9.70;99.90;;;;;;5049616;28;20472;-69
2021/10/09 05:14:57;;;;;;;17.80;9.67;;;9.70;99.90;;;;;;5034564;28;20434;-70
2021/10/09 05:17:23;;;;;;;15.93;10.57;;;9.70;99.90;;;;;;5051379;28;20227;-70
2021/10/09 05:19:48;;;;;;;18.73;10.73;;;9.70;99.90;;;;;;5045018;28;20270;-70
2021/10/09 05:22:14;;;;;;;21.40;11.50;;;9.60;99.90;;;;;;5019216;28;20272;-70
2021/10/09 05:24:40;;;;;;;15.50;9.90;;;9.60;99.90;;;;;;5044267;28;20303;-70
2021/10/09 05:27:06;;;;;;;25.27;11.40;;;9.60;99.90;;;;;;5035280;28;20236;-70
2021/10/09 05:29:32;;;;;;;14.70;9.90;;;9.60;99.90;;;;;;5016068;28;20235;-70
2021/10/09 05:32:05;;;;;;;20.20;10.50;;;9.60;99.90;;;;;;5013904;28;20477;-69
2021/10/09 05:34:31;;;;;;;20.57;10.37;;;9.50;99.90;;;;;;5058275;28;20208;-70
2021/10/09 05:36:58;;;;;;;18.03;9.80;;;9.50;99.90;;;;;;5063578;28;20804;-70
2021/10/09 05:39:24;;;;;;;15.70;9.27;;;9.50;99.90;;;;;;5031431;28;20212;-70
2021/10/09 05:41:50;;;;;;;17.10;10.23;;;9.50;99.90;;;;;;5030271;28;20481;-70
2021/10/09 05:44:16;;;;;;;17.40;11.57;;;9.50;99.90;;;;;;5032370;28;20434;-70
2021/10/09 05:46:42;;;;;;;18.07;10.60;;;9.40;99.90;;;;;;5031464;28;20215;-70
2021/10/09 05:49:09;;;;;;;17.60;9.83;;;9.40;99.90;;;;;;5039713;28;20454;-70
2021/10/09 05:51:39;;;;;;;13.43;9.60;;;9.40;99.90;;;;;;5020191;28;20442;-70
2021/10/09 06:59:27;;;;;;;18.47;9.20;;;9.30;99.90;;;;;;5071894;28;20540;-71
2021/10/09 07:01:44;;;;;;;16.33;10.27;;;9.40;99.90;;;;;;5045458;28;20457;-71
2021/10/09 07:04:10;;;;;;;16.80;10.43;;;9.40;99.90;;;;;;5053725;28;20453;-71
2021/10/09 07:06:35;;;;;;;18.20;10.97;;;9.40;99.90;;;;;;5036956;28;20461;-71
2021/10/09 07:09:06;;;;;;;20.73;10.00;;;9.50;99.90;;;;;;5037969;28;20234;-70
2021/10/09 07:11:39;;;;;;;19.50;10.47;;;9.50;99.90;;;;;;5049054;28;20536;-70
2021/10/09 07:14:06;;;;;;;16.23;10.37;;;9.60;99.90;;;;;;5037731;28;20595;-71
2021/10/09 07:16:33;;;;;;;18.40;10.97;;;9.60;99.90;;;;;;5033718;28;20266;-70
2021/10/09 07:19:01;;;;;;;14.63;9.40;;;9.60;99.90;;;;;;5044379;28;20520;-70
2021/10/09 07:21:28;;;;;;;16.80;9.63;;;9.70;99.90;;;;;;5036695;28;20482;-70
2021/10/09 07:23:54;;;;;;;16.30;10.37;;;9.70;99.90;;;;;;5050425;28;20453;-70
2021/10/09 07:26:20;;;;;;;27.10;11.00;;;9.80;99.90;;;;;;5032469;28;20455;-70
2021/10/09 07:28:46;;;;;;;17.00;9.23;;;9.80;99.90;;;;;;5016290;28;20227;-70
2021/10/09 07:31:12;;;;;;;19.97;9.10;;;9.90;99.90;;;;;;5045243;28;20227;-70
2021/10/09 07:33:37;;;;;;;13.60;10.47;;;10.00;99.90;;;;;;5035131;28;20249;-70
2021/10/09 07:36:04;;;;;;;15.30;9.50;;;10.00;99.90;;;;;;5053183;28;20226;-70
2021/10/09 07:38:30;;;;;;;17.73;11.10;;;10.10;99.90;;;;;;5037222;28;20453;-70
2021/10/09 07:40:56;;;;;;;17.93;9.90;;;10.10;99.90;;;;;;5034390;28;20471;-71
2021/10/09 07:43:22;;;;;;;13.97;9.10;;;10.20;99.90;;;;;;5052187;28;20303;-69
2021/10/09 07:45:48;;;;;;;15.70;9.57;;;10.30;99.90;;;;;;5051243;28;20914;-70
2021/10/09 07:48:14;;;;;;;18.47;10.70;;;10.30;99.90;;;;;;5036255;28;20233;-70
2021/10/09 07:50:40;;;;;;;19.10;10.40;;;10.40;99.90;;;;;;5032392;28;20470;-70
2021/10/09 07:53:05;;;;;;;15.53;10.37;;;10.40;99.90;;;;;;5035528;28;20261;-70
2021/10/09 07:55:31;;;;;;;16.83;10.80;;;10.50;99.90;;;;;;5070287;28;20214;-70
2021/10/09 07:57:57;;;;;;;17.30;11.10;;;10.50;99.90;;;;;;5052409;28;20262;-70
2021/10/09 08:00:22;;;;;;;17.20;10.30;;;10.60;99.90;;;;;;5034790;28;20310;-70
2021/10/09 08:02:49;;;;;;;20.27;10.50;;;10.70;99.90;;;;;;5050700;28;20310;-70
2021/10/09 08:05:15;;;;;;;14.13;9.97;;;10.80;99.90;;;;;;5034795;28;20298;-70
2021/10/09 08:07:41;;;;;;;13.73;9.47;;;10.90;99.90;;;;;;5015852;28;20450;-70
2021/10/09 08:10:07;;;;;;;18.23;10.63;;;10.90;99.90;;;;;;5016063;28;20831;-69
2021/10/09 08:12:33;;;;;;;17.30;10.33;;;10.90;99.90;;;;;;5030481;28;20711;-70
2021/10/09 08:14:59;;;;;;;17.90;10.67;;;11.00;99.90;;;;;;5064094;28;20460;-70
2021/10/09 08:17:24;;;;;;;20.20;10.90;;;11.00;99.90;;;;;;5051638;28;20220;-70
2021/10/09 08:19:50;;;;;;;11.70;9.07;;;11.10;99.90;;;;;;5035378;28;20215;-70
2021/10/09 08:22:17;;;;;;;15.63;9.87;;;11.10;99.90;;;;;;5064887;28;20555;-70
2021/10/09 08:24:58;;;;;;;15.27;8.73;;;11.20;99.90;;;;;;5032096;28;20216;-70
2021/10/09 08:40:34;;;;;;;17.17;10.00;;;11.50;99.90;;;;;;5053960;28;20458;-70
2021/10/09 08:43:00;;;;;;;19.63;10.53;;;11.50;99.90;;;;;;5042279;28;20445;-70
2021/10/09 08:45:25;;;;;;;19.10;10.87;;;11.60;99.90;;;;;;5051903;28;20457;-70
2021/10/09 08:47:51;;;;;;;19.87;11.37;;;11.60;99.90;;;;;;5034798;28;20251;-71
2021/10/09 08:50:17;;;;;;;19.53;10.30;;;11.70;99.90;;;;;;5030853;28;20219;-71
2021/10/09 08:53:09;;;;;;;16.67;11.53;;;11.70;99.90;;;;;;5044573;28;20219;-69
2021/10/09 08:55:37;;;;;;;18.87;9.80;;;11.70;99.90;;;;;;5050653;28;20221;-71
2021/10/09 08:58:07;;;;;;;21.80;11.30;;;11.70;99.90;;;;;;5019408;28;20866;-70
2021/10/09 09:01:13;;;;;;;16.70;10.70;;;11.80;99.90;;;;;;5015082;28;20450;-70
2021/10/09 09:03:56;;;;;;;18.37;11.00;;;11.80;99.90;;;;;;5046150;28;20490;-71
2021/10/09 09:06:56;;;;;;;19.70;10.33;;;11.90;99.90;;;;;;5025442;28;20528;-70
2021/10/09 09:40:14;;;;;;;16.73;10.60;;;12.70;99.90;;;;;;5053798;28;20957;-70
2021/10/09 09:42:46;;;;;;;17.23;10.83;;;12.90;99.90;;;;;;5068413;28;20542;-70
2021/10/09 09:45:20;;;;;;;16.47;10.50;;;13.00;99.90;;;;;;5053914;28;20460;-70
2021/10/09 09:47:46;;;;;;;15.77;10.60;;;13.10;99.90;;;;;;5053598;28;21014;-70
2021/10/09 09:50:15;;;;;;;15.13;10.47;;;13.20;99.90;;;;;;5033554;28;20665;-70
2021/10/09 09:52:44;;;;;;;18.77;10.87;;;13.30;99.90;;;;;;5051334;28;20362;-70
2021/10/09 09:55:12;;;;;;;17.93;11.30;;;13.40;99.90;;;;;;5033537;28;20478;-70
2021/10/09 09:57:39;;;;;;;13.23;9.70;;;13.50;99.90;;;;;;5068577;28;20491;-70
2021/10/09 10:00:10;;;;;;;16.40;10.50;;;13.50;99.90;;;;;;5069939;28;20453;-70
2021/10/09 10:02:48;;;;;;;18.77;10.30;;;13.50;99.90;;;;;;5029852;28;20877;-69
2021/10/09 10:05:14;;;;;;;19.37;10.10;;;13.50;99.90;;;;;;5033175;28;20487;-70
2021/10/09 10:07:40;;;;;;;15.33;9.93;;;13.50;99.90;;;;;;5068889;28;20846;-71
2021/10/09 10:10:08;;;;;;;17.97;9.90;;;13.60;99.90;;;;;;5034636;28;20454;-70
2021/10/09 10:12:35;;;;;;;12.90;9.47;;;13.70;99.90;;;;;;5051889;28;20812;-69
2021/10/09 10:15:01;;;;;;;13.07;9.67;;;13.80;99.90;;;;;;5033609;28;20532;-69
2021/10/09 10:17:39;;;;;;;15.50;10.10;;;14.00;99.90;;;;;;5033581;28;20442;-70
2021/10/09 10:20:27;;;;;;;15.13;10.37;;;14.00;99.90;;;;;;5033220;28;20441;-70
2021/10/09 10:22:55;;;;;;;13.37;10.67;;;14.00;99.90;;;;;;5047387;28;21045;-70
2021/10/09 10:25:24;;;;;;;17.43;11.00;;;14.00;99.90;;;;;;5062889;28;20533;-70
2021/10/09 10:28:13;;;;;;;15.33;10.60;;;14.10;99.90;;;;;;5035253;28;20461;-70
2021/10/09 10:31:01;;;;;;;14.93;9.67;;;14.20;99.90;;;;;;5026350;28;20473;-70
2021/10/09 10:33:31;;;;;;;14.93;9.90;;;14.20;99.90;;;;;;5052564;28;20470;-71
2021/10/09 10:35:56;;;;;;;14.90;10.33;;;14.10;99.90;;;;;;5048014;28;20445;-70
2021/10/09 10:38:22;;;;;;;15.93;10.40;;;14.10;99.90;;;;;;5044689;28;20461;-70
2021/10/09 10:41:00;;;;;;;17.23;10.87;;;14.20;99.90;;;;;;5055234;28;20602;-70
2021/10/09 10:46:03;;;;;;;15.47;10.23;;;14.30;99.90;;;;;;5047616;28;20466;-70
2021/10/09 10:48:51;;;;;;;20.87;10.40;;;14.40;99.90;;;;;;5053281;28;20989;-69
2021/10/09 10:54:30;;;;;;;15.23;9.23;;;14.80;99.90;;;;;;5049160;28;20476;-71
2021/10/09 10:56:59;;;;;;;13.93;8.93;;;15.10;99.90;;;;;;5022537;28;20488;-70
2021/10/09 10:59:31;;;;;;;9.33;8.03;;;15.20;99.90;;;;;;5049631;28;20492;-71
2021/10/09 11:02:30;;;;;;;10.70;8.50;;;15.20;99.90;;;;;;5033436;28;20572;-71
2021/10/09 11:05:04;;;;;;;12.27;8.90;;;15.30;99.90;;;;;;5024385;28;20458;-70
2021/10/09 11:07:34;;;;;;;11.07;8.43;;;15.40;99.90;;;;;;5051986;28;20464;-71
2021/10/09 11:10:29;;;;;;;12.60;9.10;;;15.40;99.90;;;;;;5052161;28;20878;-70
2021/10/09 11:12:55;;;;;;;11.60;8.50;;;15.40;99.90;;;;;;5045455;28;20863;-70
2021/10/09 11:15:28;;;;;;;15.53;9.10;;;15.40;99.90;;;;;;5036340;28;20457;-70
2021/10/09 11:18:00;;;;;;;15.80;9.90;;;15.40;99.90;;;;;;5052715;28;20223;-70
2021/10/09 11:20:42;;;;;;;12.53;9.20;;;15.40;99.90;;;;;;5069474;28;20480;-70
2021/10/09 11:23:10;;;;;;;13.50;9.20;;;15.40;99.90;;;;;;5050334;28;20456;-70
2021/10/09 11:25:44;;;;;;;10.50;7.90;;;15.40;99.90;;;;;;5031622;28;20477;-71
2021/10/09 11:28:20;;;;;;;9.40;7.40;;;15.40;99.90;;;;;;5052294;28;20469;-71
2021/10/09 11:30:46;;;;;;;10.37;7.30;;;15.40;99.90;;;;;;5034180;28;21030;-70
2021/10/09 11:33:12;;;;;;;13.00;7.33;;;15.40;99.90;;;;;;5044092;28;20461;-71
2021/10/09 11:35:39;;;;;;;10.40;8.07;;;15.30;99.90;;;;;;5034062;28;20219;-69
2021/10/09 11:38:29;;;;;;;15.40;7.67;;;15.20;99.90;;;;;;5035811;28;20499;-71
2021/10/09 11:41:02;;;;;;;11.10;7.73;;;15.40;99.90;;;;;;5047282;28;20464;-70
2021/10/09 11:44:07;;;;;;;13.40;8.40;;;15.50;99.90;;;;;;5050889;28;20454;-71
2021/10/09 11:47:07;;;;;;;10.40;7.60;;;15.50;99.90;;;;;;5047400;28;20512;-71
2021/10/09 11:53:37;;;;;;;12.23;8.30;;;15.60;99.90;;;;;;5067999;28;20458;-70
2021/10/09 11:55:29;;;;;;;10.33;7.20;;;15.70;99.90;;;;;;5047852;28;20458;-69
2021/10/09 11:57:55;;;;;;;13.30;7.63;;;15.60;99.90;;;;;;5052131;28;20450;-70
2021/10/09 12:00:27;;;;;;;11.83;8.17;;;15.40;99.90;;;;;;5035096;28;20468;-71
2021/10/09 12:02:57;;;;;;;9.40;7.70;;;15.50;99.90;;;;;;5033108;28;20441;-71
2021/10/09 12:05:33;;;;;;;11.27;8.40;;;15.60;99.90;;;;;;5034852;28;20537;-70
2021/10/09 12:08:18;;;;;;;14.30;8.30;;;15.60;99.90;;;;;;5068393;28;20479;-71
2021/10/09 12:11:13;;;;;;;11.77;8.33;;;15.60;99.90;;;;;;5033094;28;20523;-70
2021/10/09 12:13:48;;;;;;;10.53;7.00;;;15.50;99.90;;;;;;5042813;28;21109;-70
2021/10/09 12:16:15;;;;;;;13.00;7.50;;;15.40;99.90;;;;;;5068035;28;20827;-71
2021/10/09 12:19:03;;;;;;;10.23;7.17;;;15.40;99.90;;;;;;5034575;28;20499;-70
2021/10/09 12:21:39;;;;;;;12.37;8.37;;;15.40;99.90;;;;;;5050799;28;20456;-71
2021/10/09 12:24:25;;;;;;;9.87;7.47;;;15.40;99.90;;;;;;5048876;28;20973;-70
2021/10/09 12:27:15;;;;;;;7.50;6.43;;;15.50;99.90;;;;;;5032391;28;20533;-71
2021/10/09 12:30:03;;;;;;;10.00;6.77;;;15.50;99.90;;;;;;5032433;28;20465;-70
2021/10/09 12:32:30;;;;;;;14.20;7.80;;;15.80;99.90;;;;;;5033025;28;20457;-70
2021/10/09 12:35:33;;;;;;;11.30;8.70;;;15.70;99.90;;;;;;5030078;28;20476;-71
2021/10/09 12:38:11;;;;;;;11.70;7.80;;;15.60;99.90;;;;;;5033476;28;20444;-69
2021/10/09 12:40:36;;;;;;;8.93;7.40;;;15.70;99.90;;;;;;5064784;28;20450;-71
2021/10/09 12:43:02;;;;;;;11.23;7.13;;;15.90;99.90;;;;;;5047101;28;20445;-70
2021/10/09 12:45:28;;;;;;;10.73;7.60;;;15.80;99.90;;;;;;5034111;28;20707;-70
2021/10/09 12:47:56;;;;;;;9.83;7.20;;;15.80;99.90;;;;;;5038206;28;20696;-70
2021/10/09 12:50:23;;;;;;;9.47;7.17;;;15.70;99.90;;;;;;5031235;28;20434;-71
2021/10/09 12:52:49;;;;;;;14.57;7.70;;;15.70;99.90;;;;;;5029227;28;20549;-70
2021/10/09 12:55:14;;;;;;;11.07;8.07;;;15.70;99.90;;;;;;5049792;28;20521;-70
2021/10/09 12:57:51;;;;;;;9.20;7.00;;;15.60;99.90;;;;;;5030076;28;20234;-70
2021/10/09 13:00:21;;;;;;;11.20;7.50;;;15.60;99.90;;;;;;5018075;28;20726;-71
2021/10/09 13:02:47;;;;;;;10.73;7.83;;;15.80;99.90;;;;;;5047188;28;20449;-71
2021/10/09 13:05:13;;;;;;;9.97;7.63;;;15.80;99.90;;;;;;5058372;28;20438;-71
2021/10/09 13:07:39;;;;;;;11.23;6.97;;;15.80;99.90;;;;;;5034093;28;20988;-71
2021/10/09 13:10:06;;;;;;;13.90;8.07;;;15.90;99.90;;;;;;5050389;28;20469;-71
2021/10/09 13:12:32;;;;;;;9.07;6.20;;;15.90;99.90;;;;;;5033190;28;20219;-72
2021/10/09 13:14:58;;;;;;;11.07;6.80;;;16.00;99.90;;;;;;5063221;28;20553;-71
2021/10/09 13:17:23;;;;;;;9.63;6.80;;;16.10;99.90;;;;;;5063830;28;20207;-71
2021/10/09 13:19:49;;;;;;;8.13;6.33;;;16.00;99.90;;;;;;5014539;28;20216;-70
2021/10/09 13:22:15;;;;;;;11.30;6.97;;;15.90;99.90;;;;;;5046267;28;20210;-72
2021/10/09 13:24:40;;;;;;;10.20;6.63;;;15.90;99.90;;;;;;5044586;28;20203;-71
2021/10/09 13:27:06;;;;;;;9.70;7.00;;;15.90;99.90;;;;;;5033442;28;20633;-71
2021/10/09 13:29:32;;;;;;;10.30;6.77;;;15.90;99.90;;;;;;5028504;28;20208;-70
2021/10/09 13:31:57;;;;;;;7.27;6.27;;;16.00;99.90;;;;;;5038376;28;20215;-71
2021/10/09 13:34:24;;;;;;;7.97;6.30;;;15.90;99.90;;;;;;5033453;28;20239;-71
2021/10/09 13:36:50;;;;;;;8.80;7.47;;;15.90;99.90;;;;;;5064500;28;20698;-71
2021/10/09 13:39:16;;;;;;;9.33;7.20;;;16.00;99.90;;;;;;5054280;28;20532;-71
2021/10/09 13:41:42;;;;;;;9.90;7.30;;;15.90;99.90;;;;;;5079561;28;21151;-71
2021/10/09 13:44:08;;;;;;;9.17;6.57;;;16.00;99.90;;;;;;5041273;28;20461;-71
2021/10/09 13:46:37;;;;;;;9.30;6.03;;;16.10;99.90;;;;;;5013243;28;20288;-72
2021/10/09 13:49:06;;;;;;;9.90;7.10;;;16.20;99.90;;;;;;5013878;28;20451;-71
2021/10/09 13:51:33;;;;;;;13.30;6.83;;;16.20;99.90;;;;;;5048347;28;20472;-71
2021/10/09 13:53:59;;;;;;;9.10;7.37;;;16.30;99.90;;;;;;5050071;28;20575;-71
2021/10/09 13:56:25;;;;;;;8.73;6.27;;;16.20;99.50;;;;;;5033959;28;20454;-71
2021/10/09 13:58:51;;;;;;;8.33;6.03;;;16.20;99.70;;;;;;5017948;28;20447;-71
2021/10/09 14:01:17;;;;;;;8.90;6.37;;;16.10;99.80;;;;;;5012846;28;20462;-70
2021/10/09 14:03:44;;;;;;;8.93;6.80;;;16.10;99.90;;;;;;5031788;28;20567;-71
2021/10/09 14:06:10;;;;;;;8.63;5.97;;;16.10;99.90;;;;;;5066408;28;20287;-71
2021/10/09 14:08:35;;;;;;;12.77;7.80;;;16.10;99.90;;;;;;5033317;28;21004;-71
2021/10/09 14:11:02;;;;;;;8.20;6.47;;;16.10;99.80;;;;;;5050434;28;20223;-70
2021/10/09 14:13:28;;;;;;;11.53;5.90;;;16.00;99.60;;;;;;5049046;28;20218;-72
2021/10/09 14:15:54;;;;;;;11.67;5.97;;;16.00;99.90;;;;;;5035715;28;20453;-71
2021/10/09 14:18:21;;;;;;;7.40;5.43;;;16.10;99.90;;;;;;5054223;28;20446;-71
2021/10/09 14:20:51;;;;;;;11.90;5.87;;;16.10;99.90;;;;;;5036095;28;20450;-70
2021/10/09 14:23:17;;;;;;;8.70;5.83;;;16.20;99.90;;;;;;5028649;28;20543;-70
2021/10/09 14:25:44;;;;;;;9.47;6.60;;;16.20;99.90;;;;;;5017592;28;20988;-71
2021/10/09 14:28:10;;;;;;;8.43;5.97;;;16.20;99.60;;;;;;5034499;28;20468;-71
2021/10/09 14:30:37;;;;;;;6.37;5.77;;;16.20;99.80;;;;;;5032415;28;20486;-70
2021/10/09 14:33:04;;;;;;;9.40;6.10;;;16.20;99.60;;;;;;5054935;28;20457;-71
2021/10/09 14:35:30;;;;;;;5.80;5.20;;;16.30;99.60;;;;;;5059422;28;20569;-72
2021/10/09 14:37:55;;;;;;;7.67;5.63;;;16.30;99.50;;;;;;5034007;28;20525;-70
2021/10/09 14:40:21;;;;;;;7.30;5.37;;;16.20;99.20;;;;;;5050773;28;20224;-71
2021/10/09 14:42:47;;;;;;;8.23;6.20;;;16.20;99.00;;;;;;5049493;28;20228;-71
2021/10/09 14:45:14;;;;;;;6.80;5.80;;;16.10;99.10;;;;;;5028616;28;20212;-71
2021/10/09 14:47:46;;;;;;;7.40;5.70;;;16.10;99.10;;;;;;5036524;28;20446;-71
2021/10/09 15:19:29;;;;;;;5.90;4.53;;;16.20;97.70;;;;;;5053245;28;20449;-71
2021/10/09 15:21:54;;;;;;;7.80;5.40;;;16.20;97.60;;;;;;5048094;28;20226;-71
2021/10/09 15:24:20;;;;;;;9.60;5.63;;;16.20;97.60;;;;;;5036176;28;20693;-71